sensor_id;sensor_type;location;lat;lon;timestamp;P1;durP1;ratioP1;P2;durP2;ratioP2
23782;SDS011;12071;50.850;4.446;2023-06-22T00:00:57;6.65;;;3.90;;
23782;SDS011;12071;50.850;4.446;2023-06-22T00:03:24;7.70;;;3.90;;
23782;SDS011;12071;50.850;4.446;2023-06-22T00:05:50;4.82;;;3.50;;
23782;SDS011;12071;50.850;4.446;2023-06-22T00:08:17;8.50;;;4.10;;
23782;SDS011;12071;50.850;4.446;2023-06-22T00:10:42;5.03;;;3.38;;
23782;SDS011;12071;50.850;4.446;2023-06-22T00:13:08;6.68;;;3.78;;
23782;SDS011;12071;50.850;4.446;2023-06-22T00:15:36;4.95;;;3.15;;
23782;SDS011;12071;50.850;4.446;2023-06-22T00:18:02;5.15;;;3.30;;
23782;SDS011;12071;50.850;4.446;2023-06-22T00:20:28;6.28;;;3.50;;
23782;SDS011;12071;50.850;4.446;2023-06-22T00:22:54;5.70;;;3.33;;
23782;SDS011;12071;50.850;4.446;2023-06-22T00:25:21;4.38;;;3.13;;
23782;SDS011;12071;50.850;4.446;2023-06-22T00:27:46;5.53;;;3.47;;
23782;SDS011;12071;50.850;4.446;2023-06-22T00:30:12;7.15;;;3.83;;
23782;SDS011;12071;50.850;4.446;2023-06-22T00:32:38;7.00;;;3.50;;
23782;SDS011;12071;50.850;4.446;2023-06-22T00:35:04;8.20;;;3.80;;
23782;SDS011;12071;50.850;4.446;2023-06-22T00:37:30;7.18;;;3.65;;
23782;SDS011;12071;50.850;4.446;2023-06-22T00:39:56;4.00;;;3.00;;
23782;SDS011;12071;50.850;4.446;2023-06-22T00:42:22;6.97;;;3.90;;
23782;SDS011;12071;50.850;4.446;2023-06-22T00:44:47;9.60;;;3.90;;
23782;SDS011;12071;50.850;4.446;2023-06-22T00:47:13;3.95;;;3.30;;
23782;SDS011;12071;50.850;4.446;2023-06-22T00:49:42;7.10;;;3.55;;
23782;SDS011;12071;50.850;4.446;2023-06-22T00:52:08;4.00;;;3.40;;
23782;SDS011;12071;50.850;4.446;2023-06-22T00:54:39;11.82;;;3.58;;
23782;SDS011;12071;50.850;4.446;2023-06-22T00:57:10;4.85;;;3.40;;
23782;SDS011;12071;50.850;4.446;2023-06-22T00:59:37;6.25;;;3.45;;
23782;SDS011;12071;50.850;4.446;2023-06-22T01:02:04;9.65;;;3.58;;
23782;SDS011;12071;50.850;4.446;2023-06-22T01:04:38;6.30;;;3.95;;
23782;SDS011;12071;50.850;4.446;2023-06-22T01:07:13;4.95;;;3.75;;
23782;SDS011;12071;50.850;4.446;2023-06-22T01:10:34;6.40;;;3.38;;
23782;SDS011;12071;50.850;4.446;2023-06-22T01:13:01;6.38;;;3.40;;
23782;SDS011;12071;50.850;4.446;2023-06-22T01:15:33;5.18;;;2.95;;
23782;SDS011;12071;50.850;4.446;2023-06-22T01:18:14;8.40;;;3.85;;
23782;SDS011;12071;50.850;4.446;2023-06-22T01:20:42;8.25;;;3.40;;
23782;SDS011;12071;50.850;4.446;2023-06-22T01:23:17;8.23;;;5.05;;
23782;SDS011;12071;50.850;4.446;2023-06-22T01:28:46;5.35;;;3.75;;
23782;SDS011;12071;50.850;4.446;2023-06-22T01:31:18;5.32;;;3.80;;
23782;SDS011;12071;50.850;4.446;2023-06-22T01:33:55;7.15;;;4.40;;
23782;SDS011;12071;50.850;4.446;2023-06-22T01:36:24;7.78;;;5.28;;
23782;SDS011;12071;50.850;4.446;2023-06-22T01:38:51;8.82;;;5.32;;
23782;SDS011;12071;50.850;4.446;2023-06-22T01:41:17;8.82;;;5.07;;
23782;SDS011;12071;50.850;4.446;2023-06-22T01:43:44;8.15;;;5.05;;
23782;SDS011;12071;50.850;4.446;2023-06-22T01:46:10;7.05;;;4.28;;
23782;SDS011;12071;50.850;4.446;2023-06-22T01:48:37;10.18;;;4.57;;
23782;SDS011;12071;50.850;4.446;2023-06-22T01:51:04;11.82;;;4.68;;
23782;SDS011;12071;50.850;4.446;2023-06-22T01:53:30;6.38;;;4.85;;
23782;SDS011;12071;50.850;4.446;2023-06-22T01:55:56;9.32;;;5.18;;
23782;SDS011;12071;50.850;4.446;2023-06-22T01:58:23;7.70;;;4.75;;
23782;SDS011;12071;50.850;4.446;2023-06-22T02:00:53;7.82;;;5.18;;
23782;SDS011;12071;50.850;4.446;2023-06-22T02:03:31;11.32;;;6.05;;
23782;SDS011;12071;50.850;4.446;2023-06-22T02:06:06;10.50;;;6.07;;
23782;SDS011;12071;50.850;4.446;2023-06-22T02:08:40;7.65;;;5.28;;
23782;SDS011;12071;50.850;4.446;2023-06-22T02:11:11;9.57;;;5.60;;
23782;SDS011;12071;50.850;4.446;2023-06-22T02:13:39;12.93;;;5.95;;
23782;SDS011;12071;50.850;4.446;2023-06-22T02:16:08;6.65;;;5.40;;
23782;SDS011;12071;50.850;4.446;2023-06-22T02:18:36;10.52;;;5.95;;
23782;SDS011;12071;50.850;4.446;2023-06-22T02:21:02;7.00;;;5.78;;
23782;SDS011;12071;50.850;4.446;2023-06-22T02:23:28;7.30;;;5.63;;
23782;SDS011;12071;50.850;4.446;2023-06-22T02:25:53;9.60;;;5.88;;
23782;SDS011;12071;50.850;4.446;2023-06-22T02:28:19;7.95;;;5.93;;
23782;SDS011;12071;50.850;4.446;2023-06-22T02:30:45;8.75;;;5.70;;
23782;SDS011;12071;50.850;4.446;2023-06-22T02:33:10;7.68;;;5.80;;
23782;SDS011;12071;50.850;4.446;2023-06-22T02:35:36;10.20;;;5.07;;
23782;SDS011;12071;50.850;4.446;2023-06-22T02:38:03;7.20;;;5.20;;
23782;SDS011;12071;50.850;4.446;2023-06-22T02:40:29;7.88;;;5.13;;
23782;SDS011;12071;50.850;4.446;2023-06-22T02:42:55;7.47;;;5.53;;
23782;SDS011;12071;50.850;4.446;2023-06-22T02:45:23;8.48;;;5.85;;
23782;SDS011;12071;50.850;4.446;2023-06-22T02:47:48;8.27;;;5.95;;
23782;SDS011;12071;50.850;4.446;2023-06-22T02:50:14;7.95;;;5.72;;
23782;SDS011;12071;50.850;4.446;2023-06-22T02:52:41;10.23;;;6.25;;
23782;SDS011;12071;50.850;4.446;2023-06-22T02:55:07;7.63;;;5.65;;
23782;SDS011;12071;50.850;4.446;2023-06-22T02:57:33;8.27;;;5.93;;
23782;SDS011;12071;50.850;4.446;2023-06-22T02:59:59;11.73;;;7.10;;
23782;SDS011;12071;50.850;4.446;2023-06-22T03:02:25;10.07;;;6.03;;
23782;SDS011;12071;50.850;4.446;2023-06-22T03:04:51;7.53;;;5.65;;
23782;SDS011;12071;50.850;4.446;2023-06-22T03:07:18;8.32;;;6.00;;
23782;SDS011;12071;50.850;4.446;2023-06-22T03:09:44;7.85;;;5.80;;
23782;SDS011;12071;50.850;4.446;2023-06-22T03:12:10;7.32;;;6.13;;
23782;SDS011;12071;50.850;4.446;2023-06-22T03:14:36;9.30;;;6.50;;
23782;SDS011;12071;50.850;4.446;2023-06-22T03:17:02;12.38;;;6.40;;
23782;SDS011;12071;50.850;4.446;2023-06-22T03:19:28;9.13;;;6.63;;
23782;SDS011;12071;50.850;4.446;2023-06-22T03:21:56;8.02;;;6.35;;
23782;SDS011;12071;50.850;4.446;2023-06-22T03:24:22;9.27;;;6.30;;
23782;SDS011;12071;50.850;4.446;2023-06-22T03:26:48;9.93;;;6.47;;
23782;SDS011;12071;50.850;4.446;2023-06-22T03:29:13;9.65;;;5.80;;
23782;SDS011;12071;50.850;4.446;2023-06-22T03:31:40;9.02;;;6.40;;
23782;SDS011;12071;50.850;4.446;2023-06-22T03:34:06;8.63;;;6.15;;
23782;SDS011;12071;50.850;4.446;2023-06-22T03:36:31;11.65;;;6.43;;
23782;SDS011;12071;50.850;4.446;2023-06-22T03:38:57;8.38;;;6.47;;
23782;SDS011;12071;50.850;4.446;2023-06-22T03:41:23;7.47;;;6.10;;
23782;SDS011;12071;50.850;4.446;2023-06-22T03:43:48;8.63;;;6.22;;
23782;SDS011;12071;50.850;4.446;2023-06-22T03:46:14;9.95;;;6.30;;
23782;SDS011;12071;50.850;4.446;2023-06-22T03:48:39;10.05;;;6.57;;
23782;SDS011;12071;50.850;4.446;2023-06-22T03:51:05;10.50;;;6.13;;
23782;SDS011;12071;50.850;4.446;2023-06-22T03:53:31;10.50;;;6.18;;
23782;SDS011;12071;50.850;4.446;2023-06-22T03:55:57;8.68;;;6.22;;
23782;SDS011;12071;50.850;4.446;2023-06-22T03:58:23;9.23;;;5.47;;
23782;SDS011;12071;50.850;4.446;2023-06-22T04:00:49;9.60;;;6.47;;
23782;SDS011;12071;50.850;4.446;2023-06-22T04:03:17;7.18;;;6.18;;
23782;SDS011;12071;50.850;4.446;2023-06-22T04:05:45;9.70;;;5.97;;
23782;SDS011;12071;50.850;4.446;2023-06-22T04:08:12;9.57;;;6.72;;
23782;SDS011;12071;50.850;4.446;2023-06-22T04:10:39;6.95;;;5.82;;
23782;SDS011;12071;50.850;4.446;2023-06-22T04:13:04;9.95;;;6.32;;
23782;SDS011;12071;50.850;4.446;2023-06-22T04:15:30;10.27;;;6.43;;
23782;SDS011;12071;50.850;4.446;2023-06-22T04:17:56;10.70;;;7.07;;
23782;SDS011;12071;50.850;4.446;2023-06-22T04:20:22;13.07;;;7.70;;
23782;SDS011;12071;50.850;4.446;2023-06-22T04:22:50;10.65;;;7.35;;
23782;SDS011;12071;50.850;4.446;2023-06-22T04:25:17;14.00;;;9.02;;
23782;SDS011;12071;50.850;4.446;2023-06-22T04:27:42;10.32;;;7.60;;
23782;SDS011;12071;50.850;4.446;2023-06-22T04:30:08;10.00;;;7.50;;
23782;SDS011;12071;50.850;4.446;2023-06-22T04:32:34;10.13;;;7.28;;
23782;SDS011;12071;50.850;4.446;2023-06-22T04:35:04;11.07;;;7.20;;
23782;SDS011;12071;50.850;4.446;2023-06-22T04:37:31;10.55;;;7.40;;
23782;SDS011;12071;50.850;4.446;2023-06-22T04:39:58;8.80;;;6.63;;
23782;SDS011;12071;50.850;4.446;2023-06-22T04:42:27;10.18;;;7.25;;
23782;SDS011;12071;50.850;4.446;2023-06-22T04:44:53;9.48;;;6.63;;
23782;SDS011;12071;50.850;4.446;2023-06-22T04:47:19;10.13;;;6.63;;
23782;SDS011;12071;50.850;4.446;2023-06-22T04:49:45;8.45;;;6.25;;
23782;SDS011;12071;50.850;4.446;2023-06-22T04:52:12;9.63;;;6.40;;
23782;SDS011;12071;50.850;4.446;2023-06-22T04:54:39;12.10;;;7.53;;
23782;SDS011;12071;50.850;4.446;2023-06-22T04:57:13;8.38;;;6.38;;
23782;SDS011;12071;50.850;4.446;2023-06-22T04:59:39;11.07;;;7.38;;
23782;SDS011;12071;50.850;4.446;2023-06-22T05:02:06;10.63;;;7.10;;
23782;SDS011;12071;50.850;4.446;2023-06-22T05:04:32;12.38;;;8.18;;
23782;SDS011;12071;50.850;4.446;2023-06-22T05:07:01;13.23;;;8.73;;
23782;SDS011;12071;50.850;4.446;2023-06-22T05:09:28;15.45;;;9.63;;
23782;SDS011;12071;50.850;4.446;2023-06-22T05:11:54;13.40;;;9.20;;
23782;SDS011;12071;50.850;4.446;2023-06-22T05:14:21;14.57;;;10.02;;
23782;SDS011;12071;50.850;4.446;2023-06-22T05:16:48;14.38;;;10.98;;
23782;SDS011;12071;50.850;4.446;2023-06-22T05:19:14;12.52;;;9.85;;
23782;SDS011;12071;50.850;4.446;2023-06-22T05:21:39;13.38;;;10.15;;
23782;SDS011;12071;50.850;4.446;2023-06-22T05:24:05;15.95;;;10.48;;
23782;SDS011;12071;50.850;4.446;2023-06-22T05:26:31;12.23;;;9.65;;
23782;SDS011;12071;50.850;4.446;2023-06-22T05:28:58;16.23;;;10.68;;
23782;SDS011;12071;50.850;4.446;2023-06-22T05:31:25;16.65;;;10.95;;
23782;SDS011;12071;50.850;4.446;2023-06-22T05:33:52;20.13;;;10.98;;
23782;SDS011;12071;50.850;4.446;2023-06-22T05:36:19;17.67;;;11.57;;
23782;SDS011;12071;50.850;4.446;2023-06-22T05:38:46;17.35;;;13.55;;
23782;SDS011;12071;50.850;4.446;2023-06-22T05:41:12;24.60;;;15.80;;
23782;SDS011;12071;50.850;4.446;2023-06-22T05:43:38;23.33;;;15.70;;
23782;SDS011;12071;50.850;4.446;2023-06-22T05:46:04;23.50;;;16.77;;
23782;SDS011;12071;50.850;4.446;2023-06-22T05:48:30;24.58;;;17.02;;
23782;SDS011;12071;50.850;4.446;2023-06-22T05:50:56;26.05;;;16.30;;
23782;SDS011;12071;50.850;4.446;2023-06-22T05:53:21;26.05;;;15.35;;
23782;SDS011;12071;50.850;4.446;2023-06-22T05:55:47;25.38;;;15.75;;
23782;SDS011;12071;50.850;4.446;2023-06-22T05:58:13;28.45;;;15.60;;
23782;SDS011;12071;50.850;4.446;2023-06-22T06:00:39;25.05;;;15.25;;
23782;SDS011;12071;50.850;4.446;2023-06-22T06:03:05;23.42;;;14.88;;
23782;SDS011;12071;50.850;4.446;2023-06-22T06:05:32;26.30;;;16.20;;
23782;SDS011;12071;50.850;4.446;2023-06-22T06:07:59;23.40;;;16.20;;
23782;SDS011;12071;50.850;4.446;2023-06-22T06:10:25;32.00;;;15.55;;
23782;SDS011;12071;50.850;4.446;2023-06-22T06:12:52;24.80;;;16.08;;
23782;SDS011;12071;50.850;4.446;2023-06-22T06:15:18;24.13;;;17.05;;
23782;SDS011;12071;50.850;4.446;2023-06-22T06:17:50;25.10;;;16.92;;
23782;SDS011;12071;50.850;4.446;2023-06-22T06:20:21;25.02;;;16.60;;
23782;SDS011;12071;50.850;4.446;2023-06-22T06:22:48;26.13;;;18.10;;
23782;SDS011;12071;50.850;4.446;2023-06-22T06:25:14;27.25;;;19.08;;
23782;SDS011;12071;50.850;4.446;2023-06-22T06:27:44;29.33;;;19.42;;
23782;SDS011;12071;50.850;4.446;2023-06-22T06:30:15;27.38;;;19.23;;
23782;SDS011;12071;50.850;4.446;2023-06-22T06:32:42;25.00;;;19.08;;
23782;SDS011;12071;50.850;4.446;2023-06-22T06:35:10;25.77;;;19.00;;
23782;SDS011;12071;50.850;4.446;2023-06-22T06:37:37;29.00;;;20.67;;
23782;SDS011;12071;50.850;4.446;2023-06-22T06:40:05;27.95;;;19.95;;
23782;SDS011;12071;50.850;4.446;2023-06-22T06:42:38;30.27;;;21.13;;
23782;SDS011;12071;50.850;4.446;2023-06-22T06:45:07;28.10;;;21.30;;
23782;SDS011;12071;50.850;4.446;2023-06-22T06:47:33;25.17;;;20.15;;
23782;SDS011;12071;50.850;4.446;2023-06-22T06:49:59;29.23;;;21.38;;
23782;SDS011;12071;50.850;4.446;2023-06-22T06:52:25;30.55;;;20.10;;
23782;SDS011;12071;50.850;4.446;2023-06-22T06:54:51;24.55;;;19.88;;
23782;SDS011;12071;50.850;4.446;2023-06-22T06:57:17;28.98;;;20.17;;
23782;SDS011;12071;50.850;4.446;2023-06-22T06:59:43;27.67;;;20.40;;
23782;SDS011;12071;50.850;4.446;2023-06-22T07:02:09;27.67;;;20.95;;
23782;SDS011;12071;50.850;4.446;2023-06-22T07:04:35;28.23;;;21.25;;
23782;SDS011;12071;50.850;4.446;2023-06-22T07:07:01;27.38;;;20.00;;
23782;SDS011;12071;50.850;4.446;2023-06-22T07:09:27;27.33;;;19.48;;
23782;SDS011;12071;50.850;4.446;2023-06-22T07:11:53;27.05;;;20.88;;
23782;SDS011;12071;50.850;4.446;2023-06-22T07:14:18;25.25;;;19.52;;
23782;SDS011;12071;50.850;4.446;2023-06-22T07:16:44;26.27;;;18.70;;
23782;SDS011;12071;50.850;4.446;2023-06-22T07:19:11;24.60;;;19.55;;
23782;SDS011;12071;50.850;4.446;2023-06-22T07:21:38;27.05;;;19.63;;
23782;SDS011;12071;50.850;4.446;2023-06-22T07:24:04;25.27;;;19.13;;
23782;SDS011;12071;50.850;4.446;2023-06-22T07:26:31;21.95;;;18.45;;
23782;SDS011;12071;50.850;4.446;2023-06-22T07:28:57;24.08;;;18.27;;
23782;SDS011;12071;50.850;4.446;2023-06-22T07:31:25;24.20;;;18.98;;
23782;SDS011;12071;50.850;4.446;2023-06-22T07:33:51;23.88;;;18.55;;
23782;SDS011;12071;50.850;4.446;2023-06-22T07:36:17;23.40;;;18.50;;
23782;SDS011;12071;50.850;4.446;2023-06-22T07:38:43;25.98;;;19.40;;
23782;SDS011;12071;50.850;4.446;2023-06-22T07:41:09;21.25;;;17.70;;
23782;SDS011;12071;50.850;4.446;2023-06-22T07:43:35;21.83;;;17.23;;
23782;SDS011;12071;50.850;4.446;2023-06-22T07:46:02;24.40;;;18.23;;
23782;SDS011;12071;50.850;4.446;2023-06-22T07:48:28;24.23;;;18.10;;
23782;SDS011;12071;50.850;4.446;2023-06-22T07:50:54;23.38;;;17.85;;
23782;SDS011;12071;50.850;4.446;2023-06-22T07:53:20;23.73;;;18.45;;
23782;SDS011;12071;50.850;4.446;2023-06-22T07:55:47;25.65;;;18.08;;
23782;SDS011;12071;50.850;4.446;2023-06-22T07:58:12;23.00;;;17.67;;
23782;SDS011;12071;50.850;4.446;2023-06-22T08:00:38;19.90;;;17.58;;
23782;SDS011;12071;50.850;4.446;2023-06-22T08:03:04;19.42;;;16.73;;
23782;SDS011;12071;50.850;4.446;2023-06-22T08:05:30;21.52;;;16.63;;
23782;SDS011;12071;50.850;4.446;2023-06-22T08:07:56;23.45;;;17.80;;
23782;SDS011;12071;50.850;4.446;2023-06-22T08:10:22;21.83;;;17.40;;
23782;SDS011;12071;50.850;4.446;2023-06-22T08:12:48;24.40;;;16.77;;
23782;SDS011;12071;50.850;4.446;2023-06-22T08:15:14;22.70;;;17.23;;
23782;SDS011;12071;50.850;4.446;2023-06-22T08:17:39;22.58;;;18.55;;
23782;SDS011;12071;50.850;4.446;2023-06-22T08:20:05;24.17;;;17.52;;
23782;SDS011;12071;50.850;4.446;2023-06-22T08:22:34;24.13;;;17.85;;
23782;SDS011;12071;50.850;4.446;2023-06-22T08:25:01;26.52;;;18.30;;
23782;SDS011;12071;50.850;4.446;2023-06-22T08:27:28;25.00;;;18.17;;
23782;SDS011;12071;50.850;4.446;2023-06-22T08:29:56;21.02;;;17.88;;
23782;SDS011;12071;50.850;4.446;2023-06-22T08:32:24;23.60;;;18.60;;
23782;SDS011;12071;50.850;4.446;2023-06-22T08:34:54;22.08;;;18.00;;
23782;SDS011;12071;50.850;4.446;2023-06-22T08:37:20;23.92;;;17.75;;
23782;SDS011;12071;50.850;4.446;2023-06-22T08:39:55;21.60;;;17.85;;
23782;SDS011;12071;50.850;4.446;2023-06-22T08:42:21;22.92;;;18.75;;
23782;SDS011;12071;50.850;4.446;2023-06-22T08:44:48;21.27;;;18.13;;
23782;SDS011;12071;50.850;4.446;2023-06-22T08:47:13;23.42;;;18.10;;
23782;SDS011;12071;50.850;4.446;2023-06-22T08:49:39;24.45;;;18.40;;
23782;SDS011;12071;50.850;4.446;2023-06-22T08:52:05;20.55;;;17.58;;
23782;SDS011;12071;50.850;4.446;2023-06-22T08:54:31;18.65;;;16.45;;
23782;SDS011;12071;50.850;4.446;2023-06-22T08:56:58;20.95;;;16.67;;
23782;SDS011;12071;50.850;4.446;2023-06-22T08:59:23;20.40;;;16.42;;
23782;SDS011;12071;50.850;4.446;2023-06-22T09:01:49;21.08;;;17.33;;
23782;SDS011;12071;50.850;4.446;2023-06-22T09:04:14;22.00;;;16.35;;
23782;SDS011;12071;50.850;4.446;2023-06-22T09:06:40;19.70;;;16.02;;
23782;SDS011;12071;50.850;4.446;2023-06-22T09:09:10;19.73;;;15.23;;
23782;SDS011;12071;50.850;4.446;2023-06-22T09:11:37;16.95;;;14.85;;
23782;SDS011;12071;50.850;4.446;2023-06-22T09:14:02;19.10;;;15.70;;
23782;SDS011;12071;50.850;4.446;2023-06-22T09:16:28;21.85;;;15.40;;
23782;SDS011;12071;50.850;4.446;2023-06-22T09:18:54;22.58;;;16.40;;
23782;SDS011;12071;50.850;4.446;2023-06-22T09:21:20;18.55;;;15.95;;
23782;SDS011;12071;50.850;4.446;2023-06-22T09:23:45;23.33;;;16.50;;
23782;SDS011;12071;50.850;4.446;2023-06-22T09:26:15;22.27;;;15.75;;
23782;SDS011;12071;50.850;4.446;2023-06-22T09:28:40;19.27;;;15.65;;
23782;SDS011;12071;50.850;4.446;2023-06-22T09:31:06;21.52;;;15.98;;
23782;SDS011;12071;50.850;4.446;2023-06-22T09:33:32;19.02;;;15.48;;
23782;SDS011;12071;50.850;4.446;2023-06-22T09:35:57;23.02;;;16.13;;
23782;SDS011;12071;50.850;4.446;2023-06-22T09:38:23;21.95;;;17.10;;
23782;SDS011;12071;50.850;4.446;2023-06-22T09:40:48;23.55;;;18.48;;
23782;SDS011;12071;50.850;4.446;2023-06-22T09:43:14;29.00;;;19.58;;
23782;SDS011;12071;50.850;4.446;2023-06-22T09:45:40;23.40;;;17.58;;
23782;SDS011;12071;50.850;4.446;2023-06-22T09:48:05;21.25;;;16.17;;
23782;SDS011;12071;50.850;4.446;2023-06-22T09:50:31;30.00;;;18.92;;
23782;SDS011;12071;50.850;4.446;2023-06-22T09:52:56;25.30;;;17.05;;
23782;SDS011;12071;50.850;4.446;2023-06-22T09:55:22;29.30;;;17.67;;
23782;SDS011;12071;50.850;4.446;2023-06-22T09:57:48;27.55;;;18.15;;
23782;SDS011;12071;50.850;4.446;2023-06-22T10:00:15;26.77;;;18.70;;
23782;SDS011;12071;50.850;4.446;2023-06-22T10:02:41;22.92;;;17.70;;
23782;SDS011;12071;50.850;4.446;2023-06-22T10:05:07;22.77;;;16.95;;
23782;SDS011;12071;50.850;4.446;2023-06-22T10:07:33;27.63;;;20.20;;
23782;SDS011;12071;50.850;4.446;2023-06-22T10:09:59;29.40;;;19.65;;
23782;SDS011;12071;50.850;4.446;2023-06-22T10:12:26;24.67;;;19.77;;
23782;SDS011;12071;50.850;4.446;2023-06-22T10:14:52;27.85;;;20.13;;
23782;SDS011;12071;50.850;4.446;2023-06-22T10:17:18;28.38;;;19.58;;
23782;SDS011;12071;50.850;4.446;2023-06-22T10:19:43;27.38;;;21.88;;
23782;SDS011;12071;50.850;4.446;2023-06-22T10:22:09;29.67;;;20.98;;
23782;SDS011;12071;50.850;4.446;2023-06-22T10:24:34;27.15;;;20.42;;
23782;SDS011;12071;50.850;4.446;2023-06-22T10:27:00;29.65;;;22.48;;
23782;SDS011;12071;50.850;4.446;2023-06-22T10:29:26;28.30;;;20.55;;
23782;SDS011;12071;50.850;4.446;2023-06-22T10:31:51;27.02;;;20.45;;
23782;SDS011;12071;50.850;4.446;2023-06-22T10:34:17;30.63;;;22.02;;
23782;SDS011;12071;50.850;4.446;2023-06-22T10:36:42;36.20;;;23.23;;
23782;SDS011;12071;50.850;4.446;2023-06-22T10:39:11;30.00;;;22.05;;
23782;SDS011;12071;50.850;4.446;2023-06-22T10:41:36;29.15;;;22.95;;
23782;SDS011;12071;50.850;4.446;2023-06-22T10:44:02;24.33;;;20.15;;
23782;SDS011;12071;50.850;4.446;2023-06-22T10:46:28;27.85;;;21.27;;
23782;SDS011;12071;50.850;4.446;2023-06-22T10:48:53;27.52;;;22.27;;
23782;SDS011;12071;50.850;4.446;2023-06-22T10:51:20;28.92;;;21.88;;
23782;SDS011;12071;50.850;4.446;2023-06-22T10:53:46;27.55;;;21.80;;
23782;SDS011;12071;50.850;4.446;2023-06-22T10:56:12;31.30;;;23.48;;
23782;SDS011;12071;50.850;4.446;2023-06-22T10:58:37;28.88;;;23.45;;
23782;SDS011;12071;50.850;4.446;2023-06-22T11:01:03;29.25;;;23.35;;
23782;SDS011;12071;50.850;4.446;2023-06-22T11:03:29;27.92;;;24.50;;
23782;SDS011;12071;50.850;4.446;2023-06-22T11:05:54;34.38;;;26.52;;
23782;SDS011;12071;50.850;4.446;2023-06-22T11:08:20;33.17;;;26.30;;
23782;SDS011;12071;50.850;4.446;2023-06-22T11:10:45;31.23;;;27.27;;
23782;SDS011;12071;50.850;4.446;2023-06-22T11:13:11;31.42;;;27.63;;
23782;SDS011;12071;50.850;4.446;2023-06-22T11:15:37;32.67;;;27.90;;
23782;SDS011;12071;50.850;4.446;2023-06-22T11:18:03;34.45;;;28.88;;
23782;SDS011;12071;50.850;4.446;2023-06-22T11:20:30;37.67;;;30.02;;
23782;SDS011;12071;50.850;4.446;2023-06-22T11:22:56;35.05;;;29.63;;
23782;SDS011;12071;50.850;4.446;2023-06-22T11:25:22;35.33;;;28.38;;
23782;SDS011;12071;50.850;4.446;2023-06-22T11:27:47;36.08;;;29.27;;
23782;SDS011;12071;50.850;4.446;2023-06-22T11:30:13;34.50;;;30.02;;
23782;SDS011;12071;50.850;4.446;2023-06-22T11:32:38;33.70;;;28.33;;
23782;SDS011;12071;50.850;4.446;2023-06-22T11:35:04;34.65;;;28.73;;
23782;SDS011;12071;50.850;4.446;2023-06-22T11:37:30;39.13;;;28.85;;
23782;SDS011;12071;50.850;4.446;2023-06-22T11:39:56;36.67;;;29.48;;
23782;SDS011;12071;50.850;4.446;2023-06-22T11:42:21;34.72;;;27.95;;
23782;SDS011;12071;50.850;4.446;2023-06-22T11:44:48;35.58;;;28.80;;
23782;SDS011;12071;50.850;4.446;2023-06-22T11:47:14;34.22;;;28.25;;
23782;SDS011;12071;50.850;4.446;2023-06-22T11:49:40;31.75;;;27.42;;
23782;SDS011;12071;50.850;4.446;2023-06-22T11:52:06;30.50;;;27.02;;
23782;SDS011;12071;50.850;4.446;2023-06-22T11:54:32;34.58;;;27.25;;
23782;SDS011;12071;50.850;4.446;2023-06-22T11:56:58;33.67;;;27.00;;
23782;SDS011;12071;50.850;4.446;2023-06-22T11:59:24;33.97;;;27.48;;
23782;SDS011;12071;50.850;4.446;2023-06-22T12:01:50;35.53;;;27.85;;
23782;SDS011;12071;50.850;4.446;2023-06-22T12:04:16;33.92;;;28.20;;
23782;SDS011;12071;50.850;4.446;2023-06-22T12:06:42;31.80;;;27.08;;
23782;SDS011;12071;50.850;4.446;2023-06-22T12:09:08;31.42;;;25.60;;
23782;SDS011;12071;50.850;4.446;2023-06-22T12:11:34;29.45;;;25.67;;
23782;SDS011;12071;50.850;4.446;2023-06-22T12:14:00;32.28;;;27.20;;
23782;SDS011;12071;50.850;4.446;2023-06-22T12:16:30;35.70;;;27.10;;
23782;SDS011;12071;50.850;4.446;2023-06-22T12:18:56;33.97;;;26.98;;
23782;SDS011;12071;50.850;4.446;2023-06-22T12:21:21;33.80;;;27.33;;
23782;SDS011;12071;50.850;4.446;2023-06-22T12:23:47;30.83;;;27.27;;
23782;SDS011;12071;50.850;4.446;2023-06-22T12:26:12;38.15;;;26.90;;
23782;SDS011;12071;50.850;4.446;2023-06-22T12:28:38;34.60;;;28.73;;
23782;SDS011;12071;50.850;4.446;2023-06-22T12:31:03;34.45;;;29.30;;
23782;SDS011;12071;50.850;4.446;2023-06-22T12:33:29;33.95;;;29.73;;
23782;SDS011;12071;50.850;4.446;2023-06-22T12:35:55;33.28;;;29.02;;
23782;SDS011;12071;50.850;4.446;2023-06-22T12:38:21;36.15;;;29.58;;
23782;SDS011;12071;50.850;4.446;2023-06-22T12:40:47;37.35;;;30.60;;
23782;SDS011;12071;50.850;4.446;2023-06-22T12:43:14;36.78;;;31.52;;
23782;SDS011;12071;50.850;4.446;2023-06-22T12:45:41;37.75;;;31.17;;
23782;SDS011;12071;50.850;4.446;2023-06-22T12:48:07;40.97;;;32.33;;
23782;SDS011;12071;50.850;4.446;2023-06-22T12:50:33;50.47;;;34.08;;
23782;SDS011;12071;50.850;4.446;2023-06-22T12:52:59;44.22;;;34.75;;
23782;SDS011;12071;50.850;4.446;2023-06-22T12:55:27;48.00;;;36.90;;
23782;SDS011;12071;50.850;4.446;2023-06-22T12:57:52;46.13;;;36.25;;
23782;SDS011;12071;50.850;4.446;2023-06-22T13:00:18;46.83;;;36.28;;
23782;SDS011;12071;50.850;4.446;2023-06-22T13:02:44;45.45;;;37.15;;
23782;SDS011;12071;50.850;4.446;2023-06-22T13:05:10;47.60;;;38.42;;
23782;SDS011;12071;50.850;4.446;2023-06-22T13:07:36;53.42;;;39.80;;
23782;SDS011;12071;50.850;4.446;2023-06-22T13:10:01;52.08;;;38.60;;
23782;SDS011;12071;50.850;4.446;2023-06-22T13:12:28;51.55;;;39.35;;
23782;SDS011;12071;50.850;4.446;2023-06-22T13:14:53;51.20;;;39.72;;
23782;SDS011;12071;50.850;4.446;2023-06-22T13:17:19;49.35;;;39.20;;
23782;SDS011;12071;50.850;4.446;2023-06-22T13:19:46;51.97;;;40.67;;
23782;SDS011;12071;50.850;4.446;2023-06-22T13:22:25;58.03;;;42.80;;
23782;SDS011;12071;50.850;4.446;2023-06-22T13:25:05;54.17;;;40.60;;
23782;SDS011;12071;50.850;4.446;2023-06-22T13:27:31;57.55;;;43.70;;
23782;SDS011;12071;50.850;4.446;2023-06-22T13:29:57;55.42;;;40.78;;
23782;SDS011;12071;50.850;4.446;2023-06-22T13:32:23;60.55;;;44.30;;
23782;SDS011;12071;50.850;4.446;2023-06-22T13:34:48;64.72;;;44.53;;
23782;SDS011;12071;50.850;4.446;2023-06-22T13:37:14;61.95;;;45.17;;
23782;SDS011;12071;50.850;4.446;2023-06-22T13:39:40;57.47;;;43.88;;
23782;SDS011;12071;50.850;4.446;2023-06-22T13:42:06;58.47;;;44.47;;
23782;SDS011;12071;50.850;4.446;2023-06-22T13:44:33;55.17;;;43.72;;
23782;SDS011;12071;50.850;4.446;2023-06-22T13:46:59;44.30;;;36.78;;
23782;SDS011;12071;50.850;4.446;2023-06-22T13:49:25;53.08;;;39.03;;
23782;SDS011;12071;50.850;4.446;2023-06-22T13:51:51;50.90;;;38.30;;
23782;SDS011;12071;50.850;4.446;2023-06-22T13:54:16;44.20;;;35.78;;
23782;SDS011;12071;50.850;4.446;2023-06-22T13:56:42;45.08;;;35.22;;
23782;SDS011;12071;50.850;4.446;2023-06-22T13:59:08;46.65;;;36.60;;
23782;SDS011;12071;50.850;4.446;2023-06-22T14:01:36;44.58;;;36.30;;
23782;SDS011;12071;50.850;4.446;2023-06-22T14:04:03;47.60;;;37.63;;
23782;SDS011;12071;50.850;4.446;2023-06-22T14:06:29;44.22;;;35.08;;
23782;SDS011;12071;50.850;4.446;2023-06-22T14:08:55;42.15;;;34.60;;
23782;SDS011;12071;50.850;4.446;2023-06-22T14:11:21;43.03;;;36.25;;
23782;SDS011;12071;50.850;4.446;2023-06-22T14:13:46;52.67;;;37.20;;
23782;SDS011;12071;50.850;4.446;2023-06-22T14:16:12;46.60;;;37.20;;
23782;SDS011;12071;50.850;4.446;2023-06-22T14:18:38;45.30;;;37.53;;
23782;SDS011;12071;50.850;4.446;2023-06-22T14:21:03;52.00;;;39.80;;
23782;SDS011;12071;50.850;4.446;2023-06-22T14:23:29;47.47;;;38.63;;
23782;SDS011;12071;50.850;4.446;2023-06-22T14:25:54;54.85;;;40.88;;
23782;SDS011;12071;50.850;4.446;2023-06-22T14:28:20;48.22;;;40.05;;